PWSweather.com
Personal Weather Stations
Station Observations
BLACKWELL
Blackwell, AlfretonGB DE55

BlackwellAlfretonGB DE55

Lat: 53.12076, Lon: -1.354978

Elevation: 410

Station Type: Vantage Pro

High Low Average
Temperature 59.5°F15.3°C 45.9°F7.7°C 50.1°F10.1°C
Dew Point 58.1°F14.5°C 43.2°F6.2°C 46.0°F7.8°C
Winds 3.0 mph 4.8 kmh Calm Calm 1.0 mph SSE1.6 kmh SSE
Wind Gusts 11.0 mph17.7 kmh -- 5.0 mph8.0 kmh
Humidity 95% 72% 86%
Pressure 29.98 in1015.2 mb 29.21 in989.2 mb -
Precipitation 0.35 in8.9 mm - -
Hour Temp Dew Point Humidity Winds Wind Gusts Pressure Precip Precip Rate Daily Precip Total
12:31 AM 59.5°F15.3°C 58.1°F14.5°C 95% 1.0 mph SSW1.6 kmh SSW 7.0 mph11.3 kmh 29.21 in989.2 mb 0.02 in0.5 mm 0.04 in1.0 mm 0.06 in1.5 mm
01:31 AM 52.9°F11.6°C 49.5°F9.7°C 88% 2.0 mph S3.2 kmh S 7.0 mph11.3 kmh 29.27 in991.2 mb 0.01 in0.3 mm 0.00 in0.0 mm 0.07 in1.8 mm
02:31 AM 48.4°F9.1°C 45.1°F7.3°C 89% 1.0 mph S1.6 kmh S 6.0 mph9.7 kmh 29.35 in993.9 mb 0.00 in0.0 mm 0.00 in0.0 mm 0.07 in1.8 mm
03:31 AM 48.0°F8.9°C 44.4°F6.9°C 87% 1.0 mph S1.6 kmh S 6.0 mph9.7 kmh 29.39 in995.3 mb 0.01 in0.3 mm 0.00 in0.0 mm 0.08 in2.0 mm
04:31 AM 47.1°F8.4°C 43.3°F6.3°C 87% 2.0 mph S3.2 kmh S 8.0 mph12.9 kmh 29.44 in997.0 mb 0.00 in0.0 mm 0.00 in0.0 mm 0.08 in2.0 mm
05:31 AM 46.8°F8.2°C 43.7°F6.5°C 89% 1.0 mph S1.6 kmh S 7.0 mph11.3 kmh 29.48 in998.3 mb 0.00 in0.0 mm 0.00 in0.0 mm 0.08 in2.0 mm
06:31 AM 46.2°F7.9°C 43.2°F6.2°C 89% Calm Calm 4.0 mph6.4 kmh 29.52 in999.7 mb 0.00 in0.0 mm 0.00 in0.0 mm 0.08 in2.0 mm
07:31 AM 47.1°F8.4°C 43.3°F6.3°C 87% 1.0 mph S1.6 kmh S 6.0 mph9.7 kmh 29.55 in1000.7 mb 0.00 in0.0 mm 0.00 in0.0 mm 0.08 in2.0 mm
08:31 AM 49.3°F9.6°C 44.1°F6.7°C 82% 1.0 mph S1.6 kmh S 7.0 mph11.3 kmh 29.59 in1002.0 mb 0.00 in0.0 mm 0.00 in0.0 mm 0.08 in2.0 mm
09:31 AM 52.3°F11.3°C 44.6°F7.0°C 75% 1.0 mph S1.6 kmh S 9.0 mph14.5 kmh 29.60 in1002.4 mb 0.00 in0.0 mm 0.00 in0.0 mm 0.08 in2.0 mm
10:31 AM 52.2°F11.2°C 43.5°F6.4°C 72% 2.0 mph S3.2 kmh S 7.0 mph11.3 kmh 29.62 in1003.0 mb 0.00 in0.0 mm 0.00 in0.0 mm 0.08 in2.0 mm
11:31 AM 54.3°F12.4°C 45.5°F7.5°C 72% 2.0 mph S3.2 kmh S 10.0 mph16.1 kmh 29.64 in1003.7 mb 0.00 in0.0 mm 0.00 in0.0 mm 0.08 in2.0 mm
12:31 PM 53.8°F12.1°C 47.1°F8.4°C 78% 3.0 mph SSW4.8 kmh SSW 11.0 mph17.7 kmh 29.66 in1004.4 mb 0.01 in0.3 mm 0.00 in0.0 mm 0.09 in2.3 mm
01:31 PM 55.2°F12.9°C 48.6°F9.2°C 78% 2.0 mph S3.2 kmh S 7.0 mph11.3 kmh 29.66 in1004.4 mb 0.00 in0.0 mm 0.00 in0.0 mm 0.09 in2.3 mm
02:31 PM 56.1°F13.4°C 49.3°F9.6°C 78% 2.0 mph S3.2 kmh S 6.0 mph9.7 kmh 29.69 in1005.4 mb 0.00 in0.0 mm 0.00 in0.0 mm 0.09 in2.3 mm
03:31 PM 49.5°F9.7°C 46.9°F8.3°C 91% 1.0 mph S1.6 kmh S 6.0 mph9.7 kmh 29.75 in1007.5 mb 0.15 in3.8 mm 0.00 in0.0 mm 0.24 in6.1 mm
04:31 PM 48.7°F9.3°C 46.6°F8.1°C 92% 1.0 mph S1.6 kmh S 4.0 mph6.4 kmh 29.79 in1008.8 mb 0.09 in2.3 mm 0.00 in0.0 mm 0.33 in8.4 mm
05:31 PM 48.4°F9.1°C 45.9°F7.7°C 91% Calm Calm 2.0 mph3.2 kmh 29.83 in1010.2 mb 0.02 in0.5 mm 0.00 in0.0 mm 0.35 in8.9 mm
06:31 PM 47.8°F8.8°C 45.9°F7.7°C 93% Calm Calm 1.0 mph1.6 kmh 29.88 in1011.9 mb 0.00 in0.0 mm 0.00 in0.0 mm 0.35 in8.9 mm
07:31 PM 48.0°F8.9°C 46.4°F8.0°C 94% Calm Calm -- 29.91 in1012.9 mb 0.00 in0.0 mm 0.00 in0.0 mm 0.35 in8.9 mm
08:31 PM 48.6°F9.2°C 46.2°F7.9°C 92% Calm Calm -- 29.94 in1013.9 mb 0.00 in0.0 mm 0.00 in0.0 mm 0.35 in8.9 mm
09:31 PM 48.2°F9.0°C 45.3°F7.4°C 90% Calm Calm 2.0 mph3.2 kmh 29.95 in1014.2 mb 0.00 in0.0 mm 0.00 in0.0 mm 0.35 in8.9 mm
10:31 PM 47.8°F8.8°C 45.1°F7.3°C 90% Calm Calm 1.0 mph1.6 kmh 29.98 in1015.2 mb 0.00 in0.0 mm 0.00 in0.0 mm 0.35 in8.9 mm
11:31 PM 45.9°F7.7°C 43.2°F6.2°C 90% Calm Calm -- 29.98 in1015.2 mb 0.00 in0.0 mm 0.00 in0.0 mm 0.19 in4.8 mm